Time;durP1;ratioP1;P1;durP2;ratioP2;P2;SDS_P1;SDS_P2;PMS_P1;PMS_P2;Temp;Humidity;BMP_temperature;BMP_pressure;BME280_temperature;BME280_humidity;BME280_pressure;Samples;Min_cycle;Max_cycle;Signal;HPM_P1;HPM_P2
2022/01/07 00:02:39;;;;;;;49.60;12.40;;;;;;;-4.58;100.00;99276.09;2138052;83;20971;-61
2022/01/07 00:05:40;;;;;;;45.50;11.68;;;;;;;-4.58;100.00;99276.09;2138116;83;21027;-61
2022/01/07 00:08:40;;;;;;;53.80;13.43;;;;;;;-4.62;100.00;99277.34;2137950;83;20968;-61
2022/01/07 00:11:40;;;;;;;44.10;10.93;;;;;;;-4.67;100.00;99280.27;2138061;83;21539;-61
2022/01/07 00:14:41;;;;;;;40.83;9.28;;;;;;;-4.74;100.00;99282.80;2137894;83;20972;-61
2022/01/07 00:17:42;;;;;;;36.45;8.50;;;;;;;-4.76;100.00;99287.46;2142513;83;21020;-60
2022/01/07 00:20:42;;;;;;;37.58;8.58;;;;;;;-4.81;100.00;99282.31;2144892;83;20995;-60
2022/01/07 00:23:43;;;;;;;47.20;11.15;;;;;;;-4.82;100.00;99284.42;2144581;83;21024;-61
2022/01/07 00:26:43;;;;;;;45.65;11.68;;;;;;;-4.81;100.00;99285.27;2144822;83;20968;-61
2022/01/07 00:29:44;;;;;;;43.00;10.95;;;;;;;-4.82;100.00;99292.11;2145086;82;20996;-61
2022/01/07 00:32:45;;;;;;;33.00;9.35;;;;;;;-4.86;100.00;99295.48;2144674;83;20992;-61
2022/01/07 00:35:46;;;;;;;27.13;6.72;;;;;;;-4.96;100.00;99299.65;2144889;83;20999;-61
2022/01/07 00:38:47;;;;;;;27.60;7.60;;;;;;;-5.02;100.00;99294.92;2144810;83;21051;-60
2022/01/07 00:41:47;;;;;;;28.73;7.12;;;;;;;-5.07;100.00;99299.56;2145074;83;20988;-61
2022/01/07 00:44:47;;;;;;;26.05;6.42;;;;;;;-5.09;100.00;99298.67;2145047;83;20976;-61
2022/01/07 00:47:48;;;;;;;26.02;6.00;;;;;;;-5.11;100.00;99302.93;2144942;83;21040;-60
2022/01/07 00:50:48;;;;;;;24.60;6.17;;;;;;;-5.14;100.00;99308.42;2144860;83;20983;-60
2022/01/07 00:53:49;;;;;;;26.00;6.03;;;;;;;-5.16;100.00;99316.08;2144922;83;21531;-60
2022/01/07 00:56:49;;;;;;;34.40;11.10;;;;;;;-5.15;100.00;99319.52;2144815;83;20991;-60
2022/01/07 00:59:50;;;;;;;25.48;6.40;;;;;;;-5.15;100.00;99325.48;2145013;83;21038;-61
2022/01/07 01:02:50;;;;;;;27.60;6.37;;;;;;;-5.19;100.00;99326.72;2145094;83;21015;-61
2022/01/07 01:05:52;;;;;;;24.87;5.65;;;;;;;-5.19;100.00;99324.16;2144804;83;20995;-61
2022/01/07 01:08:53;;;;;;;25.35;6.03;;;;;;;-5.18;100.00;99327.17;2144949;83;21126;-61
2022/01/07 01:11:53;;;;;;;32.95;7.67;;;;;;;-5.18;100.00;99316.94;2145089;83;21023;-61
2022/01/07 01:14:54;;;;;;;31.62;7.37;;;;;;;-5.22;100.00;99314.32;2144768;83;21031;-60
2022/01/07 01:17:54;;;;;;;28.42;6.47;;;;;;;-5.18;100.00;99319.49;2140127;83;21494;-61
2022/01/07 01:20:56;;;;;;;27.77;6.78;;;;;;;-5.19;100.00;99312.22;2138063;83;21518;-61
2022/01/07 01:23:56;;;;;;;28.03;7.73;;;;;;;-5.12;100.00;99313.15;2138253;83;21610;-61
2022/01/07 01:26:57;;;;;;;28.15;7.12;;;;;;;-5.05;100.00;99308.53;2138325;83;20984;-61
2022/01/07 01:29:57;;;;;;;27.50;7.42;;;;;;;-5.02;100.00;99311.11;2138033;83;21019;-61
2022/01/07 01:32:58;;;;;;;26.02;7.53;;;;;;;-4.99;100.00;99316.25;2138066;83;21020;-61
2022/01/07 01:35:58;;;;;;;30.65;7.90;;;;;;;-4.96;100.00;99317.99;2138176;83;21523;-61
2022/01/07 01:38:59;;;;;;;27.55;8.05;;;;;;;-4.98;100.00;99326.09;2138029;83;21019;-61
2022/01/07 01:41:59;;;;;;;28.77;7.97;;;;;;;-5.01;100.00;99320.52;2138333;83;20992;-61
2022/01/07 01:45:00;;;;;;;31.37;7.65;;;;;;;-5.00;100.00;99323.92;2138266;83;20984;-61
2022/01/07 01:48:00;;;;;;;30.17;7.63;;;;;;;-5.03;100.00;99326.45;2138117;83;21039;-61
2022/01/07 01:51:01;;;;;;;27.60;7.72;;;;;;;-5.09;100.00;99323.41;2138202;83;21506;-61
2022/01/07 01:54:01;;;;;;;30.02;8.33;;;;;;;-5.12;100.00;99321.67;2137973;83;21044;-61
2022/01/07 01:57:02;;;;;;;33.40;8.25;;;;;;;-5.08;100.00;99327.69;2138012;83;21091;-61
2022/01/07 02:00:04;;;;;;;30.62;8.48;;;;;;;-5.10;100.00;99333.20;2137877;83;21112;-61
2022/01/07 02:03:06;;;;;;;32.33;9.13;;;;;;;-5.09;100.00;99333.21;2138127;83;21603;-61
2022/01/07 02:06:06;;;;;;;28.60;8.03;;;;;;;-5.09;100.00;99329.80;2138093;83;21015;-60
2022/01/07 02:09:06;;;;;;;32.20;9.10;;;;;;;-5.09;100.00;99335.77;2138418;83;20979;-61
2022/01/07 02:12:07;;;;;;;29.85;8.83;;;;;;;-5.11;100.00;99337.90;2138079;82;21007;-60
2022/01/07 02:15:07;;;;;;;30.48;8.95;;;;;;;-5.12;100.00;99335.74;2138086;83;21027;-61
2022/01/07 02:18:08;;;;;;;33.88;8.45;;;;;;;-5.14;100.00;99332.72;2142519;83;21535;-60
2022/01/07 02:21:08;;;;;;;33.08;10.28;;;;;;;-5.18;100.00;99332.28;2145091;83;20987;-61
2022/01/07 02:24:09;;;;;;;32.58;8.85;;;;;;;-5.16;100.00;99324.19;2145012;83;21145;-61
2022/01/07 02:27:09;;;;;;;32.33;9.70;;;;;;;-5.17;100.00;99327.18;2144818;83;20972;-60
2022/01/07 02:30:10;;;;;;;34.95;9.13;;;;;;;-5.19;100.00;99325.01;2144851;83;20964;-60
2022/01/07 02:33:10;;;;;;;28.55;8.85;;;;;;;-5.20;100.00;99333.55;2144587;83;21491;-61
2022/01/07 02:36:12;;;;;;;29.95;8.65;;;;;;;-5.22;100.00;99335.21;2144793;83;21047;-61
2022/01/07 02:39:13;;;;;;;31.48;8.83;;;;;;;-5.22;100.00;99333.94;2144795;83;21120;-60
2022/01/07 02:42:14;;;;;;;32.38;9.20;;;;;;;-5.16;100.00;99333.14;2144852;83;21047;-61
2022/01/07 02:45:15;;;;;;;33.63;9.33;;;;;;;-5.13;100.00;99333.17;2144653;83;21800;-60
2022/01/07 02:48:15;;;;;;;30.80;8.78;;;;;;;-5.17;100.00;99332.30;2144987;83;21061;-61
2022/01/07 02:51:16;;;;;;;36.10;9.33;;;;;;;-5.22;100.00;99327.54;2144942;83;21074;-61
2022/01/07 02:54:16;;;;;;;30.88;8.70;;;;;;;-5.25;100.00;99324.95;2144860;83;21023;-61
2022/01/07 02:57:17;;;;;;;32.60;8.73;;;;;;;-5.25;100.00;99326.23;2144819;83;21047;-60
2022/01/07 03:00:18;;;;;;;35.13;9.10;;;;;;;-5.28;100.00;99323.21;2144707;83;21440;-61
2022/01/07 03:03:18;;;;;;;32.38;8.28;;;;;;;-5.27;100.00;99328.78;2144989;83;21106;-61
2022/01/07 03:06:20;;;;;;;32.48;8.38;;;;;;;-5.29;100.00;99336.83;2144922;83;21095;-60
2022/01/07 03:09:21;;;;;;;29.30;8.38;;;;;;;-5.28;100.00;99333.45;2145372;83;21606;-61
2022/01/07 03:12:21;;;;;;;34.05;8.83;;;;;;;-5.27;100.00;99327.93;2144954;83;20999;-61
2022/01/07 03:15:22;;;;;;;29.75;7.95;;;;;;;-5.28;100.00;99334.72;2144987;83;20993;-61
2022/01/07 03:18:22;;;;;;;30.10;8.60;;;;;;;-5.28;100.00;99323.64;2144475;83;21083;-61
2022/01/07 03:21:22;;;;;;;29.42;8.30;;;;;;;-5.32;100.00;99315.50;2144875;83;21545;-61
2022/01/07 03:24:23;;;;;;;32.93;9.15;;;;;;;-5.39;100.00;99320.95;2144743;83;21530;-60
2022/01/07 03:27:24;;;;;;;29.18;8.05;;;;;;;-5.42;100.00;99319.22;2144773;83;21022;-61
2022/01/07 03:30:24;;;;;;;31.07;8.33;;;;;;;-5.44;100.00;99322.19;2144773;83;21008;-61
2022/01/07 03:33:25;;;;;;;35.52;9.88;;;;;;;-5.45;100.00;99324.30;2144643;83;21084;-61
2022/01/07 03:36:26;;;;;;;32.08;9.20;;;;;;;-5.44;100.00;99334.97;2144467;83;21531;-60
2022/01/07 03:39:26;;;;;;;32.98;9.75;;;;;;;-5.50;100.00;99337.87;2144686;83;21507;-60
2022/01/07 03:42:27;;;;;;;29.82;8.55;;;;;;;-5.55;100.00;99340.38;2144905;83;20965;-60
2022/01/07 03:45:27;;;;;;;30.37;9.33;;;;;;;-5.56;100.00;99343.77;2144774;83;21003;-60
2022/01/07 03:48:28;;;;;;;33.67;9.55;;;;;;;-5.59;100.00;99346.28;2144821;83;20980;-60
2022/01/07 03:51:28;;;;;;;30.92;9.03;;;;;;;-5.60;100.00;99348.00;2144796;83;21001;-61
2022/01/07 03:54:29;;;;;;;31.37;9.28;;;;;;;-5.61;100.00;99343.71;2144645;83;21491;-61
2022/01/07 03:57:29;;;;;;;34.48;9.65;;;;;;;-5.59;100.00;99342.05;2144656;83;21011;-60
2022/01/07 04:03:32;;;;;;;36.95;11.10;;;;;;;-5.56;100.00;99334.81;2119135;83;21506;-60
2022/01/07 04:06:32;;;;;;;34.30;9.03;;;;;;;-5.50;100.00;99336.59;2144871;83;21031;-60
2022/01/07 04:09:33;;;;;;;35.35;9.28;;;;;;;-5.54;100.00;99325.48;2144987;83;21015;-60
2022/01/07 04:12:33;;;;;;;34.48;8.78;;;;;;;-5.51;100.00;99333.62;2144642;83;21046;-60
2022/01/07 04:15:34;;;;;;;33.95;9.13;;;;;;;-5.44;100.00;99336.69;2144533;83;21087;-60
2022/01/07 04:18:34;;;;;;;32.90;9.75;;;;;;;-5.50;100.00;99339.14;2144521;83;21586;-60
2022/01/07 04:21:35;;;;;;;32.70;9.20;;;;;;;-5.57;100.00;99336.52;2144889;83;21013;-61
2022/01/07 04:24:35;;;;;;;34.90;9.93;;;;;;;-5.57;100.00;99339.08;2144953;83;21015;-60
2022/01/07 04:27:35;;;;;;;37.30;9.15;;;;;;;-5.62;100.00;99340.70;2144891;83;21035;-61
2022/01/07 04:30:36;;;;;;;31.65;8.98;;;;;;;-5.57;100.00;99344.63;2144751;83;21015;-61
2022/01/07 04:33:37;;;;;;;35.88;9.03;;;;;;;-5.63;100.00;99335.58;2144607;83;21012;-61
2022/01/07 04:36:37;;;;;;;37.73;11.38;;;;;;;-5.64;100.00;99339.84;2144750;83;21047;-61
2022/01/07 04:39:38;;;;;;;43.90;12.47;;;;;;;-5.66;100.00;99340.66;2144841;83;21097;-61
2022/01/07 04:42:38;;;;;;;43.42;11.30;;;;;;;-5.69;100.00;99347.86;2154811;83;20963;-60
2022/01/07 04:45:39;;;;;;;41.08;12.58;;;;;;;-5.86;100.00;99345.11;2134863;83;21040;-60
2022/01/07 04:48:39;;;;;;;42.70;11.63;;;;;;;-5.89;100.00;99353.98;2154636;83;21454;-60
2022/01/07 04:51:40;;;;;;;34.65;10.43;;;;;;;-5.91;100.00;99362.06;2134756;83;21052;-61
2022/01/07 04:54:40;;;;;;;36.65;10.48;;;;;;;-5.98;100.00;99357.30;2154820;83;21039;-60
2022/01/07 04:57:41;;;;;;;37.60;10.98;;;;;;;-6.02;100.00;99357.24;2134876;83;20988;-60
2022/01/07 05:00:41;;;;;;;36.30;10.95;;;;;;;-6.18;100.00;99358.72;2154999;83;21032;-60
2022/01/07 05:03:42;;;;;;;39.95;10.40;;;;;;;-6.17;100.00;99361.72;2134975;83;21072;-61
2022/01/07 05:06:44;;;;;;;35.68;10.03;;;;;;;-6.17;100.00;99360.45;2154494;83;21098;-61
2022/01/07 05:09:45;;;;;;;34.95;9.70;;;;;;;-6.16;100.00;99361.74;2134900;83;21044;-61
2022/01/07 05:12:46;;;;;;;35.88;11.08;;;;;;;-6.14;100.00;99362.61;2134842;83;21504;-60
2022/01/07 05:15:46;;;;;;;37.60;10.63;;;;;;;-6.07;100.00;99364.00;2154847;83;21050;-60
2022/01/07 05:18:47;;;;;;;38.90;12.58;;;;;;;-6.04;100.00;99358.94;2134946;83;20993;-60
2022/01/07 05:21:47;;;;;;;36.15;11.90;;;;;;;-6.10;100.00;99355.87;2155112;83;21003;-60
2022/01/07 05:24:48;;;;;;;33.90;10.85;;;;;;;-6.16;100.00;99354.48;2134923;83;21024;-60
2022/01/07 05:27:49;;;;;;;36.90;11.48;;;;;;;-6.19;100.00;99355.72;2154889;83;21498;-60
2022/01/07 05:30:49;;;;;;;33.73;10.60;;;;;;;-6.19;100.00;99348.05;2135152;83;21059;-60
2022/01/07 05:33:50;;;;;;;34.73;10.43;;;;;;;-6.18;100.00;99348.08;2154820;83;21051;-61
2022/01/07 05:36:51;;;;;;;48.23;15.50;;;;;;;-6.14;100.00;99342.17;2134994;83;21080;-60
2022/01/07 05:39:51;;;;;;;53.90;16.50;;;;;;;-6.15;100.00;99345.99;2155027;83;20998;-60
2022/01/07 05:42:52;;;;;;;47.03;14.70;;;;;;;-6.13;100.00;99344.33;2134895;83;21048;-60
2022/01/07 05:45:52;;;;;;;49.73;13.80;;;;;;;-6.05;100.00;99340.17;2154860;83;21486;-60
2022/01/07 05:48:53;;;;;;;50.88;13.98;;;;;;;-5.94;100.00;99345.41;2134823;83;21521;-60
2022/01/07 05:51:53;;;;;;;49.67;14.68;;;;;;;-5.87;100.00;99348.92;2155133;83;20975;-60
2022/01/07 05:54:54;;;;;;;51.45;18.05;;;;;;;-5.81;100.00;99350.27;2135154;83;21076;-61
2022/01/07 05:57:54;;;;;;;45.43;13.80;;;;;;;-5.78;100.00;99342.22;2154936;83;20971;-60
2022/01/07 06:00:55;;;;;;;47.35;13.93;;;;;;;-5.68;100.00;99341.92;2134988;83;21041;-61
2022/01/07 06:03:55;;;;;;;45.25;15.63;;;;;;;-5.73;100.00;99341.02;2154643;83;21585;-60
2022/01/07 06:06:56;;;;;;;50.00;15.95;;;;;;;-5.78;100.00;99341.37;2134640;83;21516;-61
2022/01/07 06:09:56;;;;;;;44.27;14.95;;;;;;;-5.78;100.00;99346.48;2155031;83;20979;-60
2022/01/07 06:12:56;;;;;;;52.90;17.07;;;;;;;-5.76;100.00;99340.95;2135232;83;20972;-61
2022/01/07 06:15:57;;;;;;;50.00;16.62;;;;;;;-5.74;100.00;99342.70;2154968;82;21083;-60
2022/01/07 06:18:57;;;;;;;47.00;15.48;;;;;;;-5.72;100.00;99344.42;2134771;83;21052;-61
2022/01/07 06:21:58;;;;;;;48.20;16.37;;;;;;;-5.75;100.00;99342.67;2154601;83;21498;-60
2022/01/07 06:24:58;;;;;;;56.63;17.67;;;;;;;-5.75;100.00;99334.61;2134843;83;21045;-61
2022/01/07 06:27:59;;;;;;;64.15;19.30;;;;;;;-5.69;100.00;99338.06;2154979;83;20975;-60
2022/01/07 06:30:59;;;;;;;49.13;17.23;;;;;;;-5.68;100.00;99336.81;2134942;83;21084;-61
2022/01/07 06:34:02;;;;;;;45.15;15.58;;;;;;;-5.69;100.00;99329.97;2154890;83;21016;-60
2022/01/07 06:37:02;;;;;;;;;;;;;;;-5.65;100.00;99331.73;2113342;83;21036;-60
2022/01/07 06:40:04;;;;;;;62.48;20.23;;;;;;;-5.61;100.00;99330.93;2134892;83;20140;-60
2022/01/07 06:43:05;;;;;;;63.28;18.90;;;;;;;-5.61;100.00;99328.80;2155270;83;21497;-60
2022/01/07 06:46:06;;;;;;;58.83;18.62;;;;;;;-5.63;100.00;99324.08;2134932;83;21103;-61
2022/01/07 06:49:06;;;;;;;49.40;17.62;;;;;;;-5.63;100.00;99329.19;2154847;83;20980;-60
2022/01/07 06:52:07;;;;;;;58.42;19.77;;;;;;;-5.57;100.00;99326.73;2134833;83;20984;-60
2022/01/07 06:55:07;;;;;;;55.95;18.85;;;;;;;-5.62;100.00;99323.25;2154789;83;21537;-61
2022/01/07 06:58:07;;;;;;;63.02;20.65;;;;;;;-5.60;100.00;99323.70;2134578;83;21051;-60
2022/01/07 07:01:08;;;;;;;49.60;16.40;;;;;;;-5.60;100.00;99332.66;2154735;83;20964;-61
2022/01/07 07:04:08;;;;;;;50.20;17.52;;;;;;;-5.61;100.00;99337.32;2135172;83;21040;-61
2022/01/07 07:07:09;;;;;;;62.53;21.77;;;;;;;-5.58;100.00;99337.36;2154827;83;20975;-61
2022/01/07 07:10:09;;;;;;;58.17;20.62;;;;;;;-5.59;100.00;99336.94;2134954;83;21035;-60
2022/01/07 07:13:10;;;;;;;65.57;22.90;;;;;;;-5.55;100.00;99334.41;2154370;83;21003;-61
2022/01/07 07:16:10;;;;;;;49.30;18.98;;;;;;;-5.54;100.00;99331.88;2134752;83;21523;-60
2022/01/07 07:19:10;;;;;;;55.33;19.98;;;;;;;-5.54;100.00;99327.19;2150654;82;21075;-60
2022/01/07 07:22:11;;;;;;;56.85;20.95;;;;;;;-5.58;100.00;99323.30;2131250;84;21004;-61
2022/01/07 07:25:11;;;;;;;52.90;19.65;;;;;;;-5.59;100.00;99330.55;2148157;83;21053;-60
2022/01/07 07:28:13;;;;;;;55.28;20.82;;;;;;;-5.62;100.00;99321.97;2131512;84;21091;-60
2022/01/07 07:31:15;;;;;;;55.50;21.33;;;;;;;-5.63;100.00;99316.01;2147906;83;21036;-60
2022/01/07 07:37:16;;;;;;;58.95;20.48;;;;;;;-5.49;100.00;99317.42;2148227;83;21431;-60
2022/01/07 07:40:17;;;;;;;55.52;20.25;;;;;;;-5.33;100.00;99309.94;2131412;84;21033;-60
2022/01/07 07:43:17;;;;;;;53.48;21.42;;;;;;;-5.14;100.00;99308.42;2148020;83;21028;-60
2022/01/07 07:46:17;;;;;;;57.15;23.20;;;;;;;-4.97;100.00;99304.35;2131258;84;21476;-60
2022/01/07 07:49:18;;;;;;;64.42;23.07;;;;;;;-4.80;100.00;99308.75;2147820;83;21501;-61
2022/01/07 07:52:19;;;;;;;65.62;26.45;;;;;;;-4.54;100.00;99302.16;2131552;84;21088;-61
2022/01/07 07:55:19;;;;;;;82.20;28.50;;;;;;;-4.20;100.00;99302.36;2147985;83;20987;-61
2022/01/07 07:58:20;;;;;;;93.05;39.30;;;;;;;-3.96;100.00;99301.25;2131414;84;20985;-61
2022/01/07 08:01:23;;;;;;;105.90;48.80;;;;;;;-3.79;100.00;99311.56;2147996;83;21003;-61
2022/01/07 08:04:23;;;;;;;80.20;28.38;;;;;;;-3.58;100.00;99311.65;2105693;84;21013;-61
2022/01/07 08:07:23;;;;;;;75.22;23.85;;;;;;;-3.38;100.00;99314.72;2148101;83;21023;-61
2022/01/07 08:10:26;;;;;;;78.12;24.00;;;;;;;-3.21;100.00;99315.63;2131360;84;21072;-61
2022/01/07 08:13:29;;;;;;;55.98;19.35;;;;;;;-3.16;100.00;99312.66;2148250;83;20980;-61
2022/01/07 08:16:29;;;;;;;48.10;16.95;;;;;;;-3.14;100.00;99316.07;2105637;84;21488;-61
2022/01/07 08:19:30;;;;;;;53.35;18.90;;;;;;;-3.17;100.00;99325.05;2147807;83;20996;-61
2022/01/07 08:22:30;;;;;;;56.53;19.15;;;;;;;-3.09;100.00;99328.06;2131403;84;21028;-61
2022/01/07 08:25:32;;;;;;;61.33;21.02;;;;;;;-2.92;100.00;99328.94;2147995;83;21004;-61
2022/01/07 08:28:38;;;;;;;67.00;21.65;;;;;;;-2.71;100.00;99333.70;2131656;84;21527;-61
2022/01/07 08:37:40;;;;;;;65.62;24.55;;;;;;;-2.05;100.00;99323.79;2119964;83;20971;-61
2022/01/07 08:40:40;;;;;;;73.90;25.97;;;;;;;-1.83;100.00;99329.31;2131381;84;21535;-61
2022/01/07 08:43:41;;;;;;;57.73;22.15;;;;;;;-1.67;100.00;99328.84;2147775;83;21004;-61
2022/01/07 08:46:43;;;;;;;60.33;21.82;;;;;;;-1.59;100.00;99323.69;2131392;84;20956;-61
2022/01/07 08:49:43;;;;;;;54.55;18.48;;;;;;;-1.50;100.00;99321.06;2148318;83;21032;-61
2022/01/07 08:52:44;;;;;;;51.65;19.32;;;;;;;-1.41;100.00;99304.72;2131459;84;21543;-61
2022/01/07 08:55:45;;;;;;;67.45;23.77;;;;;;;-1.35;100.00;99298.69;2148173;83;21557;-61
2022/01/07 08:58:46;;;;;;;66.07;23.00;;;;;;;-1.18;100.00;99296.03;2131682;84;20984;-61
2022/01/07 09:01:46;;;;;;;66.40;23.57;;;;;;;-0.99;100.00;99292.90;2148174;83;21003;-62
2022/01/07 09:04:47;;;;;;;74.10;29.85;;;;;;;-0.87;100.00;99296.69;2131621;84;21477;-62
2022/01/07 09:07:47;;;;;;;55.03;20.52;;;;;;;-0.78;100.00;99310.78;2148256;83;21435;-62
2022/01/07 09:10:47;;;;;;;48.28;16.12;;;;;;;-0.68;100.00;99310.73;2131577;84;21016;-62
2022/01/07 09:13:50;;;;;;;47.23;16.10;;;;;;;-0.62;100.00;99314.54;2148486;83;20972;-61
2022/01/07 09:16:50;;;;;;;45.83;16.35;;;;;;;-0.54;100.00;99314.89;2105987;84;21522;-61
2022/01/07 09:19:51;;;;;;;49.75;17.17;;;;;;;-0.44;100.00;99306.66;2148067;83;21011;-62
2022/01/07 09:22:53;;;;;;;46.77;16.48;;;;;;;-0.44;100.00;99298.93;2131528;84;20976;-62
2022/01/07 09:25:54;;;;;;;48.17;17.40;;;;;;;-0.37;100.00;99294.14;2148294;83;21003;-62
2022/01/07 09:28:54;;;;;;;46.68;18.10;;;;;;;-0.25;100.00;99288.45;2131659;84;21093;-62
2022/01/07 09:31:55;;;;;;;52.20;17.30;;;;;;;-0.07;100.00;99288.69;2148194;83;21011;-62
2022/01/07 09:34:55;;;;;;;49.15;17.67;;;;;;;0.15;100.00;99282.88;2131572;84;21040;-61
2022/01/07 09:37:56;;;;;;;44.15;15.00;;;;;;;0.32;100.00;99278.81;2148044;83;21080;-61
2022/01/07 09:40:57;;;;;;;35.85;11.97;;;;;;;0.48;100.00;99278.19;2131246;84;21520;-62
2022/01/07 09:43:57;;;;;;;40.85;13.22;;;;;;;0.53;100.00;99275.09;2147981;83;20991;-62
2022/01/07 09:46:59;;;;;;;38.13;14.63;;;;;;;0.65;100.00;99285.72;2131529;84;21040;-62
2022/01/07 09:50:00;;;;;;;40.20;14.68;;;;;;;0.75;100.00;99283.84;2148216;83;21010;-62
2022/01/07 09:53:02;;;;;;;34.53;10.58;;;;;;;0.84;100.00;99281.98;2131413;84;21007;-62
2022/01/07 09:56:04;;;;;;;35.50;12.30;;;;;;;0.96;100.00;99273.66;2120076;83;21018;-62
2022/01/07 09:59:07;;;;;;;35.13;11.13;;;;;;;1.03;100.00;99277.44;2131627;84;21503;-62
2022/01/07 10:02:07;;;;;;;34.18;11.25;;;;;;;1.09;100.00;99280.33;2148135;83;21011;-62
2022/01/07 10:05:08;;;;;;;38.17;14.43;;;;;;;1.20;100.00;99273.27;2131468;84;21017;-62
2022/01/07 10:08:08;;;;;;;44.27;15.55;;;;;;;1.29;100.00;99270.98;2148307;83;20940;-62
2022/01/07 10:11:09;;;;;;;30.72;10.38;;;;;;;1.48;100.00;99270.67;2131769;84;20989;-62
2022/01/07 10:14:09;;;;;;;31.12;10.23;;;;;;;1.63;100.00;99254.91;2148095;83;21019;-62
2022/01/07 10:17:10;;;;;;;30.05;9.85;;;;;;;1.66;100.00;99257.44;2131396;84;21029;-61
2022/01/07 10:20:11;;;;;;;31.97;9.23;;;;;;;1.69;100.00;99254.79;2147110;83;21562;-61
2022/01/07 10:23:13;;;;;;;29.70;9.10;;;;;;;1.79;100.00;99249.47;2148297;83;20984;-61
2022/01/07 10:26:14;;;;;;;28.40;8.85;;;;;;;1.92;100.00;99251.38;2148427;83;20980;-61
2022/01/07 10:29:14;;;;;;;28.38;8.00;;;;;;;1.98;100.00;99248.67;2148578;83;21003;-61
2022/01/07 10:32:15;;;;;;;28.23;8.55;;;;;;;2.01;100.00;99254.66;2148656;83;20988;-61
2022/01/07 10:35:15;;;;;;;32.98;9.23;;;;;;;1.96;100.00;99245.27;2147992;83;21052;-61
2022/01/07 10:38:16;;;;;;;32.17;9.95;;;;;;;1.70;69.42;99244.02;2148287;83;20979;-62
2022/01/07 10:41:17;;;;;;;30.70;8.10;;;;;;;1.69;70.14;99237.13;2148301;83;21111;-61
2022/01/07 10:44:17;;;;;;;28.02;7.95;;;;;;;1.80;67.31;99241.67;2148452;83;20975;-62
2022/01/07 10:47:18;;;;;;;28.90;7.80;;;;;;;1.83;64.49;99240.32;2148502;83;21080;-62
2022/01/07 10:50:19;;;;;;;30.48;10.88;;;;;;;1.83;60.24;99229.13;2148682;83;20987;-62
2022/01/07 10:53:20;;;;;;;58.95;21.77;;;;;;;1.89;62.98;99225.96;2148436;82;20987;-62
2022/01/07 10:56:20;;;;;;;31.25;10.03;;;;;;;1.88;62.83;99232.05;2148242;83;21043;-62
2022/01/07 10:59:21;;;;;;;39.53;14.15;;;;;;;1.89;59.10;99225.13;2148394;82;21578;-62
2022/01/07 11:02:22;;;;;;;56.37;15.35;;;;;;;1.96;59.77;99227.16;2148310;83;21054;-62
2022/01/07 11:05:23;;;;;;;72.08;22.95;;;;;;;2.08;59.09;99232.08;2148172;83;21051;-62
2022/01/07 11:08:23;;;;;;;54.33;18.05;;;;;;;2.05;59.67;99229.13;2148368;83;20988;-62
2022/01/07 11:11:24;;;;;;;32.50;9.65;;;;;;;2.11;58.28;99220.36;2148444;83;20998;-62
2022/01/07 11:14:25;;;;;;;59.60;19.92;;;;;;;2.17;58.39;99215.09;2148515;83;20980;-62
2022/01/07 11:17:26;;;;;;;39.78;14.83;;;;;;;2.23;60.79;99215.41;2148215;83;20980;-62
2022/01/07 11:20:27;;;;;;;51.00;19.10;;;;;;;2.32;58.80;99213.06;2145910;82;21051;-63
2022/01/07 11:23:27;;;;;;;92.70;33.23;;;;;;;2.39;58.81;99212.88;2144691;83;20952;-62
2022/01/07 11:26:28;;;;;;;41.73;15.38;;;;;;;2.46;58.61;99210.16;2144515;83;21018;-62
2022/01/07 11:29:29;;;;;;;48.95;15.35;;;;;;;2.40;57.81;99204.24;2144890;83;21035;-62
2022/01/07 11:32:30;;;;;;;44.70;13.75;;;;;;;2.40;53.26;99195.63;2144677;83;21070;-63
2022/01/07 11:35:31;;;;;;;39.85;12.10;;;;;;;2.40;54.53;99192.59;2144756;82;21530;-62
2022/01/07 11:38:31;;;;;;;41.08;14.18;;;;;;;2.42;57.18;99194.69;2144823;83;20999;-62
2022/01/07 11:41:33;;;;;;;37.80;13.35;;;;;;;2.51;57.67;99191.05;2148186;83;20970;-62
2022/01/07 11:44:34;;;;;;;32.30;11.73;;;;;;;2.55;57.23;99190.09;2131820;84;21012;-62
2022/01/07 11:47:36;;;;;;;40.30;13.40;;;;;;;2.57;54.49;99180.99;2147876;83;21558;-61
2022/01/07 11:50:43;;;;;;;62.88;21.55;;;;;;;2.61;57.02;99174.86;2131297;84;21492;-62
2022/01/07 11:53:43;;;;;;;48.87;17.52;;;;;;;2.67;57.04;99172.15;2119580;83;21031;-62
2022/01/07 11:56:47;;;;;;;40.55;13.85;;;;;;;2.62;57.73;99168.80;2105050;84;21107;-63
2022/01/07 11:59:49;;;;;;;40.23;14.70;;;;;;;2.63;56.12;99159.28;2119906;83;20992;-61
2022/01/07 12:02:50;;;;;;;48.78;18.27;;;;;;;2.64;54.92;99170.06;2131581;84;21044;-62
2022/01/07 12:05:50;;;;;;;39.48;13.15;;;;;;;2.54;56.63;99162.52;2147722;83;20971;-62
2022/01/07 12:14:56;;;;;;;29.75;9.15;;;;;;;2.53;53.21;99145.69;2119287;83;20999;-62
2022/01/07 12:17:56;;;;;;;33.85;10.75;;;;;;;2.25;49.99;99148.45;2131393;83;20965;-62
2022/01/07 12:20:57;;;;;;;34.20;12.03;;;;;;;2.15;52.51;99144.83;2147704;83;21590;-61
2022/01/07 12:27:04;;;;;;;43.13;15.48;;;;;;;2.23;56.82;99149.40;2095764;83;21534;-63
2022/01/07 12:30:10;;;;;;;36.63;12.30;;;;;;;2.30;54.03;99152.69;2105440;84;21016;-63
2022/01/07 12:33:10;;;;;;;33.28;10.32;;;;;;;2.41;52.97;99155.89;2119963;83;21060;-63
2022/01/07 12:36:10;;;;;;;34.33;11.22;;;;;;;2.45;51.98;99145.03;2131241;84;21004;-63
2022/01/07 12:39:11;;;;;;;32.40;11.88;;;;;;;2.40;51.70;99151.16;2147899;83;21439;-63
2022/01/07 12:42:12;;;;;;;38.88;14.25;;;;;;;2.37;53.92;99150.37;2131300;84;21581;-62
2022/01/07 12:45:12;;;;;;;45.25;15.90;;;;;;;2.38;54.60;99149.49;2147748;83;21063;-63
2022/01/07 12:48:14;;;;;;;45.63;14.70;;;;;;;2.41;54.43;99137.77;2130794;84;21044;-62
2022/01/07 12:51:14;;;;;;;36.77;13.32;;;;;;;2.37;54.38;99140.88;2147808;83;21019;-62
2022/01/07 12:54:15;;;;;;;44.15;16.65;;;;;;;2.37;52.76;99135.70;2130936;84;21506;-62
2022/01/07 12:57:16;;;;;;;46.83;18.32;;;;;;;2.37;53.54;99137.00;2148017;83;20987;-62
2022/01/07 13:00:16;;;;;;;36.85;13.95;;;;;;;2.40;54.70;99133.05;2131225;84;21088;-62
2022/01/07 13:03:17;;;;;;;35.63;12.03;;;;;;;2.48;55.17;99134.60;2147896;83;21094;-63
2022/01/07 13:06:18;;;;;;;33.08;11.25;;;;;;;2.56;55.39;99128.36;2131091;84;21031;-62
2022/01/07 13:09:18;;;;;;;32.55;11.12;;;;;;;2.60;52.08;99127.83;2147972;83;21415;-62
2022/01/07 13:12:19;;;;;;;33.30;11.80;;;;;;;2.55;51.12;99123.22;2131392;84;21513;-62
2022/01/07 13:15:20;;;;;;;38.92;13.90;;;;;;;2.52;52.72;99125.42;2147747;83;21525;-62
2022/01/07 13:18:20;;;;;;;33.92;11.55;;;;;;;2.46;52.96;99123.41;2131622;84;20992;-62
2022/01/07 13:21:21;;;;;;;34.45;11.88;;;;;;;2.39;52.30;99117.09;2153420;83;21074;-62
2022/01/07 13:24:22;;;;;;;58.30;18.32;;;;;;;2.31;52.91;99117.70;2134840;83;20985;-62
2022/01/07 13:27:23;;;;;;;36.05;13.22;;;;;;;2.20;53.12;99112.78;2154767;83;21058;-61
2022/01/07 13:30:23;;;;;;;54.15;19.37;;;;;;;2.10;53.30;99115.17;2134700;83;21047;-62
2022/01/07 13:33:24;;;;;;;40.10;13.95;;;;;;;1.98;54.18;99110.25;2154984;83;20979;-62
2022/01/07 13:36:24;;;;;;;36.70;14.28;;;;;;;1.84;53.83;99111.40;2135087;83;21004;-62
2022/01/07 13:39:25;;;;;;;55.50;24.75;;;;;;;1.66;53.85;99115.20;2155071;82;21015;-61
2022/01/07 13:42:26;;;;;;;42.03;15.03;;;;;;;1.55;55.81;99110.68;2134934;83;21024;-62
2022/01/07 13:45:27;;;;;;;34.30;12.00;;;;;;;1.48;55.16;99110.39;2154794;83;21027;-62
2022/01/07 13:48:27;;;;;;;39.25;15.05;;;;;;;1.44;53.90;99111.33;2134795;83;20993;-62
2022/01/07 13:51:28;;;;;;;45.30;17.55;;;;;;;1.41;54.66;99107.52;2155031;83;20991;-61
2022/01/07 13:54:29;;;;;;;44.18;17.20;;;;;;;1.34;54.68;99110.67;2134841;83;20988;-61
2022/01/07 13:57:29;;;;;;;40.23;14.18;;;;;;;1.24;55.01;99104.81;2154891;83;21030;-61
2022/01/07 14:00:30;;;;;;;46.08;18.10;;;;;;;1.12;54.98;99107.62;2135033;83;21088;-61
2022/01/07 14:03:30;;;;;;;42.43;17.55;;;;;;;1.03;55.00;99108.22;2154765;83;21004;-61
2022/01/07 14:06:31;;;;;;;39.20;14.03;;;;;;;0.89;54.00;99106.31;2135023;83;21527;-61
2022/01/07 14:09:33;;;;;;;41.50;14.70;;;;;;;0.78;54.87;99102.61;2154723;83;21046;-63
2022/01/07 14:12:34;;;;;;;48.25;15.40;;;;;;;0.69;55.77;99110.52;2135120;83;21069;-62